Time;durP1;ratioP1;P1;durP2;ratioP2;P2;SDS_P1;SDS_P2;PMS_P1;PMS_P2;Temp;Humidity;BMP_temperature;BMP_pressure;BME280_temperature;BME280_humidity;BME280_pressure;Samples;Min_cycle;Max_cycle;Signal;HPM_P1;HPM_P2
2022/12/22 03:27:48;;;;;;;36.67;23.05;;;;;;;-4.40;100.00;93272.03;5046767;28;20063;-72
2022/12/22 03:30:15;;;;;;;35.92;22.30;;;;;;;-4.41;100.00;93275.47;5068778;28;20550;-72
2022/12/22 03:32:43;;;;;;;46.75;27.75;;;;;;;-4.37;100.00;93276.81;5068974;28;20056;-73
2022/12/22 03:35:10;;;;;;;52.28;31.83;;;;;;;-4.39;100.00;93273.63;5068810;28;20048;-73
2022/12/22 03:37:36;;;;;;;52.53;35.33;;;;;;;-4.49;100.00;93259.28;5069293;28;20083;-72
2022/12/22 03:40:03;;;;;;;58.22;36.80;;;;;;;-4.53;100.00;93267.16;5069221;28;20454;-72
2022/12/22 03:48:00;;;;;;;68.23;39.50;;;;;;;-4.67;100.00;93274.03;5068698;28;20051;-73
2022/12/22 03:50:26;;;;;;;62.00;36.92;;;;;;;-4.70;100.00;93280.06;5069074;28;20102;-72
2022/12/22 03:52:53;;;;;;;57.22;34.75;;;;;;;-4.74;100.00;93267.84;5068875;28;20045;-72
2022/12/22 03:55:20;;;;;;;63.28;33.20;;;;;;;-4.77;100.00;93268.09;5068650;28;20122;-72
2022/12/22 03:57:46;;;;;;;56.17;32.42;;;;;;;-4.63;100.00;93264.56;5071325;28;20086;-73
2022/12/22 04:00:14;;;;;;;50.38;30.48;;;;;;;-4.60;100.00;93256.78;5072606;28;20453;-72
2022/12/22 04:02:41;;;;;;;55.95;34.35;;;;;;;-4.65;100.00;93251.31;5072700;28;20390;-73
2022/12/22 04:05:09;;;;;;;52.03;31.00;;;;;;;-4.49;100.00;93261.78;5072296;28;20488;-72
2022/12/22 04:07:36;;;;;;;55.80;32.55;;;;;;;-4.47;100.00;93267.50;5072819;28;20094;-73
2022/12/22 04:12:56;;;;;;;57.70;34.65;;;;;;;-4.48;100.00;93268.41;5072751;28;20059;-72
2022/12/22 04:15:24;;;;;;;59.80;35.83;;;;;;;-4.48;100.00;93257.56;5047080;28;20452;-72
2022/12/22 04:17:51;;;;;;;62.88;37.58;;;;;;;-4.74;100.00;93225.25;5072475;28;20397;-73
2022/12/22 04:20:20;;;;;;;54.38;33.00;;;;;;;-4.46;100.00;93259.06;5072315;28;20497;-72
2022/12/22 04:22:47;;;;;;;51.47;30.48;;;;;;;-4.49;100.00;93258.50;5072624;28;20053;-72
2022/12/22 04:25:15;;;;;;;53.60;29.13;;;;;;;-4.53;100.00;93252.91;5072140;28;20041;-72
2022/12/22 04:27:41;;;;;;;59.17;34.47;;;;;;;-4.50;100.00;93257.69;5072318;28;20048;-73
2022/12/22 04:30:09;;;;;;;56.92;35.08;;;;;;;-4.52;100.00;93264.53;5072609;28;20053;-73
2022/12/22 04:32:36;;;;;;;63.05;34.45;;;;;;;-4.51;100.00;93267.81;5072033;28;20546;-73
2022/12/22 04:35:03;;;;;;;63.17;38.38;;;;;;;-4.47;100.00;93259.16;5072158;28;20048;-72
2022/12/22 04:37:31;;;;;;;77.95;45.85;;;;;;;-4.50;100.00;93257.69;5071995;28;20045;-73
2022/12/22 04:39:58;;;;;;;97.55;56.45;;;;;;;-4.50;100.00;93252.66;5071708;28;20095;-73
2022/12/22 04:42:24;;;;;;;81.95;47.80;;;;;;;-4.52;100.00;93252.00;5071815;28;20044;-73
2022/12/22 04:44:51;;;;;;;99.75;52.25;;;;;;;-4.44;100.00;93259.72;5071934;28;20177;-72
2022/12/22 04:47:18;;;;;;;106.40;57.63;;;;;;;-4.48;100.00;93243.34;5072099;28;20048;-72
2022/12/22 04:49:45;;;;;;;104.47;56.35;;;;;;;-4.45;100.00;93255.63;5072021;28;20117;-72
2022/12/22 04:52:12;;;;;;;89.30;51.78;;;;;;;-4.44;100.00;93258.94;5071727;28;20043;-72
2022/12/22 04:54:40;;;;;;;91.53;52.38;;;;;;;-4.49;100.00;93256.78;5072064;28;20052;-72
2022/12/22 04:57:07;;;;;;;89.90;49.97;;;;;;;-4.48;100.00;93253.38;5071715;28;20040;-72
2022/12/22 04:59:33;;;;;;;80.03;47.95;;;;;;;-4.50;100.00;93246.88;5071519;28;20044;-72
2022/12/22 05:02:00;;;;;;;83.45;47.72;;;;;;;-4.48;100.00;93245.03;5071402;28;20044;-72
2022/12/22 05:04:27;;;;;;;54.30;32.47;;;;;;;-4.60;100.00;93231.72;5072049;28;20636;-72
2022/12/22 05:06:53;;;;;;;52.17;32.45;;;;;;;-4.52;100.00;93248.69;5071823;28;20044;-72
2022/12/22 05:09:20;;;;;;;59.38;34.03;;;;;;;-4.55;100.00;93252.22;5071194;28;20488;-72
2022/12/22 05:11:48;;;;;;;50.95;30.98;;;;;;;-4.63;100.00;93244.50;5071556;28;20122;-73
2022/12/22 05:14:15;;;;;;;45.70;28.40;;;;;;;-4.63;100.00;93255.31;5071141;28;20057;-73
2022/12/22 05:16:42;;;;;;;51.08;32.65;;;;;;;-4.57;100.00;93259.06;5070972;28;20086;-72
2022/12/22 05:19:09;;;;;;;50.42;30.83;;;;;;;-4.53;100.00;93264.66;5071701;28;20113;-73
2022/12/22 05:21:35;;;;;;;50.72;30.33;;;;;;;-4.57;100.00;93264.88;5070856;28;20435;-73
2022/12/22 05:24:02;;;;;;;51.00;31.80;;;;;;;-4.60;100.00;93275.16;5071457;28;20048;-72
2022/12/22 05:26:29;;;;;;;54.17;33.42;;;;;;;-4.62;100.00;93273.66;5071137;28;20429;-72
2022/12/22 05:28:57;;;;;;;68.97;39.28;;;;;;;-4.79;100.00;93254.88;5071221;28;20045;-73
2022/12/22 05:31:25;;;;;;;79.95;47.15;;;;;;;-4.71;100.00;93273.44;5071070;28;20041;-73
2022/12/22 05:33:52;;;;;;;76.60;45.20;;;;;;;-4.75;100.00;93271.28;5071116;28;20514;-73
2022/12/22 05:36:19;;;;;;;71.68;43.13;;;;;;;-4.73;100.00;93274.47;5070578;28;20637;-73
2022/12/22 05:38:46;;;;;;;67.85;44.05;;;;;;;-4.76;100.00;93274.69;5070873;28;20052;-73
2022/12/22 05:41:13;;;;;;;72.00;45.53;;;;;;;-4.79;100.00;93279.94;5070885;28;20098;-73
2022/12/22 05:43:40;;;;;;;71.22;44.65;;;;;;;-4.84;100.00;93278.59;5070752;28;20052;-73
2022/12/22 05:46:10;;;;;;;70.07;43.20;;;;;;;-5.08;100.00;93227.78;5070198;28;20555;-73
2022/12/22 05:48:37;;;;;;;80.40;46.17;;;;;;;-4.80;100.00;93274.13;5071033;28;20045;-72
2022/12/22 05:51:04;;;;;;;71.55;43.33;;;;;;;-4.84;100.00;93271.06;5070764;28;20094;-72
2022/12/22 05:53:31;;;;;;;71.68;44.67;;;;;;;-4.73;100.00;93275.25;5070799;28;20052;-71
2022/12/22 05:55:58;;;;;;;65.03;38.78;;;;;;;-4.72;100.00;93268.56;5070424;28;20102;-71
2022/12/22 05:58:25;;;;;;;68.13;41.40;;;;;;;-4.93;100.00;93230.84;5070337;28;20099;-71
2022/12/22 06:00:55;;;;;;;66.03;40.40;;;;;;;-4.68;100.00;93264.09;5070881;28;20056;-72
2022/12/22 06:03:23;;;;;;;68.00;37.75;;;;;;;-4.63;100.00;93265.34;5070617;28;20049;-72
2022/12/22 06:05:50;;;;;;;60.50;31.77;;;;;;;-4.64;100.00;93262.97;5070523;28;20048;-72
2022/12/22 06:08:17;;;;;;;48.60;27.88;;;;;;;-4.66;100.00;93273.09;5070199;28;20045;-72
2022/12/22 06:10:44;;;;;;;46.28;27.40;;;;;;;-4.66;100.00;93265.59;5070635;28;20109;-72
2022/12/22 06:13:10;;;;;;;60.75;37.13;;;;;;;-4.67;100.00;93270.72;5070307;28;20048;-72
2022/12/22 06:15:37;;;;;;;73.90;42.65;;;;;;;-4.67;100.00;93280.72;5070013;28;20082;-72
2022/12/22 06:18:04;;;;;;;73.95;45.75;;;;;;;-4.66;100.00;93272.28;5070590;28;20114;-72
2022/12/22 06:20:32;;;;;;;83.35;46.78;;;;;;;-4.61;100.00;93272.75;5062776;28;20052;-72
2022/12/22 06:22:59;;;;;;;90.10;50.70;;;;;;;-4.77;100.00;93240.53;5068839;28;20044;-72
2022/12/22 06:25:25;;;;;;;98.00;54.83;;;;;;;-4.59;100.00;93273.41;5070290;28;20094;-72
2022/12/22 06:27:52;;;;;;;91.57;50.08;;;;;;;-4.61;100.00;93272.75;5069892;28;20081;-72
2022/12/22 06:30:19;;;;;;;87.63;50.15;;;;;;;-4.60;100.00;93272.63;5069755;28;20103;-72
2022/12/22 06:32:46;;;;;;;85.75;50.70;;;;;;;-4.57;100.00;93279.13;5069688;28;20098;-73
2022/12/22 06:35:12;;;;;;;84.43;49.17;;;;;;;-4.56;100.00;93270.69;5069922;28;20094;-72
2022/12/22 06:37:40;;;;;;;76.03;44.65;;;;;;;-4.52;100.00;93268.75;5070068;28;20443;-72
2022/12/22 06:40:09;;;;;;;72.97;44.60;;;;;;;-4.64;100.00;93261.25;5069875;28;20079;-72
2022/12/22 06:45:19;;;;;;;68.65;40.35;;;;;;;-4.29;100.00;93285.34;5069520;28;20060;-72
2022/12/22 06:47:46;;;;;;;61.55;38.85;;;;;;;-4.17;100.00;93286.13;5069150;28;20049;-72
2022/12/22 06:50:13;;;;;;;59.83;35.75;;;;;;;-4.05;100.00;93284.38;5069540;28;20041;-72
2022/12/22 06:52:41;;;;;;;59.72;36.58;;;;;;;-3.96;100.00;93277.84;5069588;28;20103;-72
2022/12/22 06:55:08;;;;;;;59.17;37.35;;;;;;;-3.80;100.00;93286.69;5065573;28;20052;-73
2022/12/22 06:57:35;;;;;;;86.03;48.85;;;;;;;-3.71;100.00;93285.94;5067138;28;20075;-72
2022/12/22 07:00:02;;;;;;;103.28;56.80;;;;;;;-3.61;100.00;93283.53;5068987;28;20048;-72
2022/12/22 07:02:30;;;;;;;106.13;62.38;;;;;;;-3.55;100.00;93282.25;5069100;28;20040;-72
2022/12/22 07:04:56;;;;;;;100.43;60.60;;;;;;;-3.49;100.00;93277.53;5069696;28;20131;-72
2022/12/22 07:07:23;;;;;;;104.35;61.63;;;;;;;-3.49;100.00;93276.72;5055079;28;20159;-73
2022/12/22 07:09:51;;;;;;;111.78;67.97;;;;;;;-3.34;100.00;93278.94;5069545;28;20057;-73
2022/12/22 07:12:18;;;;;;;134.82;76.05;;;;;;;-3.22;100.00;93277.94;5068994;28;20052;-73
2022/12/22 07:14:45;;;;;;;124.72;72.70;;;;;;;-3.17;100.00;93280.88;5069026;28;20044;-73
2022/12/22 07:17:11;;;;;;;121.13;69.63;;;;;;;-3.07;100.00;93280.94;5068984;28;20106;-73
2022/12/22 07:19:38;;;;;;;118.28;69.90;;;;;;;-2.94;100.00;93280.72;5068936;28;20463;-73
2022/12/22 07:22:05;;;;;;;117.53;71.22;;;;;;;-2.84;100.00;93281.56;5068757;28;20060;-73
2022/12/22 07:24:32;;;;;;;133.77;80.97;;;;;;;-2.83;100.00;93277.31;5069288;28;20040;-73
2022/12/22 07:27:00;;;;;;;137.68;81.35;;;;;;;-2.78;100.00;93290.31;5068461;28;20127;-72
2022/12/22 07:29:27;;;;;;;141.15;83.13;;;;;;;-2.65;100.00;93285.06;5068973;28;20045;-73
2022/12/22 07:31:53;;;;;;;152.43;88.03;;;;;;;-2.56;100.00;93289.34;5067916;28;20059;-72
2022/12/22 07:34:20;;;;;;;138.98;87.43;;;;;;;-2.53;100.00;93283.25;5068764;28;20045;-72
2022/12/22 07:36:47;;;;;;;120.97;70.53;;;;;;;-2.47;100.00;93289.50;5068598;28;20090;-72
2022/12/22 07:39:14;;;;;;;114.18;62.83;;;;;;;-2.43;100.00;93285.81;5068722;28;20037;-72
2022/12/22 07:44:25;;;;;;;79.50;47.67;;;;;;;-2.24;100.00;93297.63;5068534;28;20098;-72
2022/12/22 07:46:52;;;;;;;74.22;44.70;;;;;;;-2.18;100.00;93291.31;5068532;28;20049;-72
2022/12/22 07:52:03;;;;;;;64.20;39.20;;;;;;;-2.13;100.00;93293.41;5067989;28;20083;-72
2022/12/22 07:54:30;;;;;;;66.30;40.63;;;;;;;-2.05;100.00;93286.00;5068465;28;20036;-72
2022/12/22 07:56:57;;;;;;;65.65;39.17;;;;;;;-1.94;100.00;93285.09;5063602;28;20048;-72
2022/12/22 07:59:23;;;;;;;67.57;39.83;;;;;;;-1.99;100.00;93267.84;5064546;28;20041;-72
2022/12/22 08:01:52;;;;;;;64.63;38.53;;;;;;;-1.85;100.00;93273.44;5068763;28;20053;-72
2022/12/22 08:04:19;;;;;;;68.53;43.63;;;;;;;-1.76;100.00;93260.84;5068408;28;20060;-72
2022/12/22 08:06:45;;;;;;;62.15;39.75;;;;;;;-1.39;100.00;93276.22;5068753;28;20455;-73
2022/12/22 08:09:15;;;;;;;66.93;38.03;;;;;;;-1.24;100.00;93274.06;5068314;28;20048;-73
2022/12/22 08:11:42;;;;;;;63.00;37.55;;;;;;;-1.03;100.00;93283.94;5068524;28;20052;-73
2022/12/22 08:14:09;;;;;;;56.70;35.72;;;;;;;-0.91;100.00;93274.50;5068457;28;20455;-73
2022/12/22 08:16:35;;;;;;;67.47;39.55;;;;;;;-0.85;100.00;93263.06;5068745;28;20048;-73
2022/12/22 08:19:04;;;;;;;80.45;47.22;;;;;;;-0.60;100.00;93271.72;5068225;28;20074;-73
2022/12/22 08:21:30;;;;;;;84.13;49.17;;;;;;;-0.50;100.00;93274.22;5068617;28;20079;-73
2022/12/22 08:23:57;;;;;;;90.97;52.15;;;;;;;-0.37;100.00;93275.59;5065687;28;20102;-73
2022/12/22 08:26:28;;;;;;;88.10;54.05;;;;;;;-0.34;100.00;93272.78;5066418;28;20508;-73
2022/12/22 08:29:01;;;;;;;95.40;55.30;;;;;;;-0.25;100.00;93281.22;5067017;28;20493;-73
2022/12/22 08:31:30;;;;;;;85.05;51.35;;;;;;;-0.24;100.00;93275.28;5068309;28;20508;-73
2022/12/22 08:34:01;;;;;;;90.50;50.63;;;;;;;-0.10;100.00;93272.25;5068171;28;20055;-73
2022/12/22 08:36:30;;;;;;;451.13;232.73;;;;;;;0.13;100.00;93275.16;5068227;28;20551;-72
2022/12/22 08:38:57;;;;;;;177.60;88.25;;;;;;;0.30;100.00;93267.72;5042199;28;20058;-73
2022/12/22 08:44:05;;;;;;;89.38;44.20;;;;;;;0.39;100.00;93266.84;5071202;28;20049;-72
2022/12/22 08:46:32;;;;;;;86.03;47.20;;;;;;;0.43;100.00;93261.50;5071720;28;20094;-72
2022/12/22 08:48:58;;;;;;;100.60;50.47;;;;;;;0.38;100.00;93260.19;5072117;28;20094;-72
2022/12/22 08:51:25;;;;;;;71.28;39.78;;;;;;;0.42;100.00;93263.25;5071916;28;20492;-72
2022/12/22 08:53:53;;;;;;;73.43;40.40;;;;;;;0.49;100.00;93259.19;5071720;28;20074;-72
2022/12/22 08:56:20;;;;;;;80.65;47.65;;;;;;;0.57;100.00;93252.59;5071837;28;20098;-72
2022/12/22 08:58:46;;;;;;;125.85;73.05;;;;;;;0.81;100.00;93246.91;5071747;28;20041;-72
2022/12/22 09:01:17;;;;;;;82.28;46.63;;;;;;;0.86;100.00;93228.75;5071998;28;20479;-72
2022/12/22 09:03:47;;;;;;;76.93;42.92;;;;;;;1.05;100.00;93243.72;5071806;28;20412;-72
2022/12/22 09:06:14;;;;;;;80.70;41.20;;;;;;;0.97;100.00;93236.09;5071639;28;20094;-72
2022/12/22 09:08:40;;;;;;;73.97;39.28;;;;;;;1.03;100.00;93230.44;5071737;28;20097;-72
2022/12/22 09:11:08;;;;;;;62.33;35.67;;;;;;;1.10;100.00;93230.63;5071971;28;20584;-72
2022/12/22 09:13:35;;;;;;;62.55;35.20;;;;;;;1.13;100.00;93227.81;5071446;28;20044;-72
2022/12/22 09:16:04;;;;;;;48.17;29.38;;;;;;;1.18;100.00;93223.09;5071320;28;20496;-72
2022/12/22 09:18:31;;;;;;;46.08;25.83;;;;;;;1.25;100.00;93228.31;5071328;28;20052;-72
2022/12/22 09:20:58;;;;;;;44.80;26.20;;;;;;;1.23;100.00;93211.69;5071499;28;20493;-72
2022/12/22 09:23:25;;;;;;;38.47;25.25;;;;;;;1.35;100.00;93220.63;5071480;28;20131;-72
2022/12/22 09:25:52;;;;;;;43.42;25.33;;;;;;;1.37;100.00;93212.84;5071142;28;20056;-72
2022/12/22 09:28:20;;;;;;;36.78;22.42;;;;;;;1.50;100.00;93209.88;5069519;28;20040;-72
2022/12/22 09:30:50;;;;;;;35.95;21.83;;;;;;;1.57;100.00;93218.47;5054019;28;20554;-72
2022/12/22 09:33:17;;;;;;;46.53;26.23;;;;;;;1.45;100.00;93212.91;5070916;28;20048;-72
2022/12/22 09:35:43;;;;;;;41.22;23.88;;;;;;;1.56;97.19;93222.75;5071418;28;20393;-72
2022/12/22 09:38:10;;;;;;;35.58;20.58;;;;;;;1.66;95.91;93221.81;5070834;28;20049;-72
2022/12/22 09:40:37;;;;;;;35.00;19.55;;;;;;;1.80;91.21;93226.28;5057120;28;20045;-72
2022/12/22 09:43:04;;;;;;;41.75;22.52;;;;;;;1.82;100.00;93213.47;5070386;28;20040;-73
2022/12/22 09:45:32;;;;;;;40.20;20.45;;;;;;;1.89;95.53;93211.09;5067413;28;20044;-72
2022/12/22 09:48:02;;;;;;;39.13;21.60;;;;;;;1.76;96.34;93203.94;5061414;28;20052;-72
2022/12/22 09:50:31;;;;;;;39.55;21.92;;;;;;;2.05;92.34;93210.31;5070861;28;20182;-72
2022/12/22 09:53:00;;;;;;;41.53;24.73;;;;;;;1.99;93.76;93182.13;5070930;28;20090;-72
2022/12/22 09:55:38;;;;;;;47.95;26.65;;;;;;;2.16;95.62;93197.34;5069942;28;20562;-72
2022/12/22 09:58:16;;;;;;;40.35;20.80;;;;;;;2.28;89.61;93205.44;5070839;28;20052;-72
2022/12/22 10:00:49;;;;;;;44.72;22.52;;;;;;;2.31;89.09;93200.03;5045350;28;20098;-72
2022/12/22 10:03:30;;;;;;;33.75;19.58;;;;;;;2.43;86.31;93192.91;5070227;28;20098;-72
2022/12/22 10:06:05;;;;;;;38.42;20.35;;;;;;;2.59;85.17;93188.75;5070531;28;20098;-72
2022/12/22 10:08:35;;;;;;;44.47;22.55;;;;;;;2.66;87.28;93184.63;5070155;28;20090;-72
2022/12/22 10:11:02;;;;;;;46.00;22.20;;;;;;;2.69;88.75;93181.78;5070477;28;20055;-72
2022/12/22 10:13:29;;;;;;;45.67;23.40;;;;;;;2.73;90.45;93177.94;5070417;28;20036;-72
2022/12/22 10:15:57;;;;;;;57.90;27.73;;;;;;;2.88;96.04;93170.44;5070262;28;20501;-72
2022/12/22 10:18:25;;;;;;;56.97;27.67;;;;;;;3.03;100.00;93162.97;5070295;28;20036;-72
2022/12/22 10:21:09;;;;;;;58.63;28.70;;;;;;;3.18;95.65;93165.59;5070443;28;20092;-72
2022/12/22 10:23:38;;;;;;;62.75;28.85;;;;;;;3.19;94.25;93153.69;5070345;28;20094;-72
2022/12/22 10:26:09;;;;;;;79.70;38.30;;;;;;;3.28;93.78;93155.25;5070015;28;20047;-72
2022/12/22 10:28:38;;;;;;;85.78;40.70;;;;;;;3.30;93.90;93155.06;5070449;28;20102;-72
2022/12/22 10:31:14;;;;;;;89.78;41.25;;;;;;;3.45;95.27;93150.06;5070010;28;20086;-73
2022/12/22 10:33:42;;;;;;;74.78;35.53;;;;;;;3.41;95.60;93133.59;5070006;28;20538;-73
2022/12/22 10:36:09;;;;;;;71.75;33.95;;;;;;;3.56;97.04;93137.00;5069827;28;20492;-73
2022/12/22 10:38:38;;;;;;;60.85;29.35;;;;;;;3.48;91.90;93122.59;5070208;28;20463;-73
2022/12/22 10:41:14;;;;;;;61.95;28.48;;;;;;;3.61;90.84;93134.75;5070127;28;20094;-73
2022/12/22 10:43:48;;;;;;;65.47;30.83;;;;;;;3.86;94.75;93126.16;5069447;28;20052;-73
2022/12/22 10:46:17;;;;;;;61.28;28.48;;;;;;;4.01;90.39;93131.28;5063298;28;20054;-73
2022/12/22 10:48:43;;;;;;;59.75;26.42;;;;;;;3.95;89.69;93116.72;5068295;28;20049;-73
2022/12/22 10:51:13;;;;;;;43.58;23.80;;;;;;;3.90;89.77;93132.50;5069700;28;20040;-73
2022/12/22 10:53:48;;;;;;;55.00;24.63;;;;;;;4.04;90.54;93128.44;5069107;28;20056;-73
2022/12/22 10:56:24;;;;;;;41.85;20.85;;;;;;;4.18;91.23;93121.78;5069819;28;20393;-73
2022/12/22 10:58:53;;;;;;;42.58;20.05;;;;;;;4.09;86.93;93105.81;5069639;28;20090;-73
2022/12/22 11:01:30;;;;;;;32.58;18.65;;;;;;;4.14;83.09;93112.94;5069763;28;20143;-73
2022/12/22 11:03:57;;;;;;;35.85;18.02;;;;;;;4.18;87.05;93116.72;5044409;28;20048;-73
2022/12/22 11:06:24;;;;;;;33.42;18.45;;;;;;;4.23;87.46;93108.56;5068642;28;20049;-74
2022/12/22 11:08:51;;;;;;;38.78;17.85;;;;;;;4.37;81.12;93112.09;5069638;28;20094;-73
2022/12/22 11:11:36;;;;;;;35.58;17.40;;;;;;;4.38;80.42;93111.13;5069142;28;20121;-71
2022/12/22 11:14:17;;;;;;;40.38;19.48;;;;;;;4.54;73.24;93103.31;5068537;28;20048;-71
2022/12/22 11:16:51;;;;;;;38.78;18.85;;;;;;;4.67;81.18;93095.09;5068738;28;20098;-71
2022/12/22 11:19:38;;;;;;;30.13;14.23;;;;;;;4.89;76.12;93097.72;5069327;28;20044;-71
2022/12/22 11:22:18;;;;;;;32.75;16.42;;;;;;;4.96;72.24;93092.72;5069229;28;20048;-71
2022/12/22 11:24:55;;;;;;;37.55;17.10;;;;;;;5.02;76.10;93081.00;5069034;28;20044;-71
2022/12/22 11:27:33;;;;;;;34.55;18.00;;;;;;;5.05;80.23;93081.44;5068877;28;20040;-71
2022/12/22 11:30:08;;;;;;;33.85;15.65;;;;;;;5.21;78.85;93082.19;5064566;28;20102;-71
2022/12/22 11:32:56;;;;;;;28.45;14.43;;;;;;;5.17;70.75;93078.44;5067544;28;20078;-71
2022/12/22 11:35:38;;;;;;;32.97;14.35;;;;;;;5.39;73.31;93081.81;5068866;28;20090;-71
2022/12/22 11:38:17;;;;;;;38.40;18.80;;;;;;;5.39;68.30;93074.16;5069042;28;20044;-71
2022/12/22 11:40:47;;;;;;;32.20;16.60;;;;;;;5.56;69.98;93074.69;5068525;28;20052;-71
2022/12/22 11:43:25;;;;;;;27.17;13.07;;;;;;;5.52;72.91;93065.06;5068829;28;20052;-71
2022/12/22 11:46:11;;;;;;;25.92;12.05;;;;;;;5.79;63.82;93075.50;5068461;28;20550;-71
2022/12/22 11:49:05;;;;;;;26.85;13.40;;;;;;;5.69;67.75;93070.72;5068889;28;20041;-70
2022/12/22 11:51:51;;;;;;;30.38;13.10;;;;;;;5.61;73.80;93069.09;5052033;28;20048;-70
2022/12/22 11:54:54;;;;;;;31.35;13.23;;;;;;;5.68;72.49;93066.56;5069065;28;20106;-71
2022/12/22 11:57:30;;;;;;;37.22;16.30;;;;;;;5.71;69.64;93054.28;5050601;28;20049;-70
2022/12/22 12:00:05;;;;;;;42.33;15.60;;;;;;;5.84;63.26;93066.31;5068821;28;20052;-70
2022/12/22 12:03:24;;;;;;;42.58;15.35;;;;;;;5.89;63.11;93063.22;5068832;28;20117;-70
2022/12/22 12:06:12;;;;;;;32.58;13.60;;;;;;;5.73;64.74;93054.88;5068917;28;20534;-70
2022/12/22 12:08:55;;;;;;;47.28;16.63;;;;;;;5.64;67.99;93045.75;5068634;28;20408;-70
2022/12/22 12:11:31;;;;;;;46.58;17.60;;;;;;;5.54;69.03;93040.97;5068088;28;20098;-70
2022/12/22 12:14:07;;;;;;;46.83;18.00;;;;;;;5.62;65.48;93053.59;5068412;28;20492;-70
2022/12/22 12:16:40;;;;;;;46.87;18.37;;;;;;;5.73;73.32;93047.22;5068454;28;20466;-70
2022/12/22 12:19:38;;;;;;;31.85;17.05;;;;;;;5.69;67.47;93043.47;5072040;28;20098;-70
2022/12/22 12:22:14;;;;;;;35.70;16.98;;;;;;;5.69;68.15;93050.34;5052689;28;20048;-70
2022/12/22 12:24:57;;;;;;;43.90;19.27;;;;;;;5.71;70.15;93053.47;5072099;28;20045;-70
2022/12/22 12:27:40;;;;;;;45.58;21.95;;;;;;;5.82;74.88;93041.97;5072182;28;20455;-70
2022/12/22 12:30:13;;;;;;;42.38;22.85;;;;;;;5.80;71.88;93033.75;5072524;28;20105;-69
2022/12/22 12:32:46;;;;;;;38.72;21.95;;;;;;;5.84;71.05;93043.38;5072242;28;20539;-69
2022/12/22 12:35:35;;;;;;;48.13;25.17;;;;;;;5.86;74.29;93038.91;5072380;28;20049;-70
2022/12/22 12:38:10;;;;;;;48.33;24.30;;;;;;;5.83;73.46;93034.16;5072241;28;20075;-69
2022/12/22 12:40:44;;;;;;;51.95;26.40;;;;;;;5.92;74.68;93042.47;5072425;28;20057;-70
2022/12/22 12:43:12;;;;;;;46.78;25.35;;;;;;;5.92;73.56;93029.72;5072127;28;20466;-69
2022/12/22 12:45:41;;;;;;;40.60;21.75;;;;;;;5.89;72.28;93032.66;5072019;28;20455;-70
2022/12/22 12:48:41;;;;;;;39.60;20.17;;;;;;;5.83;70.54;93021.41;5071964;28;20504;-70
2022/12/22 12:51:46;;;;;;;33.97;20.08;;;;;;;5.88;70.27;93036.94;5043061;28;20605;-70
2022/12/22 12:54:36;;;;;;;43.30;22.65;;;;;;;5.89;71.86;93025.78;5072279;28;20045;-70
2022/12/22 12:57:12;;;;;;;43.28;24.33;;;;;;;5.91;73.09;93030.69;5071419;28;20086;-70
2022/12/22 12:59:45;;;;;;;;;;;;;;;5.89;72.59;93022.44;5072341;28;20094;-70
2022/12/22 13:02:44;;;;;;;50.55;24.38;;;;;;;5.91;75.65;93017.13;5071454;28;20384;-70
2022/12/22 13:05:32;;;;;;;50.40;27.00;;;;;;;5.84;75.59;93014.56;5071288;28;20044;-70
2022/12/22 13:08:11;;;;;;;49.88;25.92;;;;;;;5.73;75.51;93006.44;5071426;28;20040;-70
2022/12/22 13:10:42;;;;;;;41.97;24.98;;;;;;;5.84;75.26;93022.97;5072120;28;20055;-70
2022/12/22 13:13:46;;;;;;;45.95;24.85;;;;;;;5.83;76.92;93015.53;5071833;28;20040;-70
2022/12/22 13:16:33;;;;;;;51.03;27.73;;;;;;;5.85;81.02;93019.50;5071293;28;20058;-70
2022/12/22 13:19:06;;;;;;;49.17;28.65;;;;;;;5.84;79.06;93017.88;5071968;28;20389;-70
2022/12/22 13:21:42;;;;;;;50.83;28.65;;;;;;;5.88;80.93;93014.00;5071684;28;20489;-70
2022/12/22 13:24:29;;;;;;;44.85;25.20;;;;;;;5.89;80.86;93017.34;5070965;28;20051;-70
2022/12/22 13:27:03;;;;;;;46.15;26.65;;;;;;;5.94;82.96;93012.50;5071127;28;20554;-71
2022/12/22 13:29:41;;;;;;;46.13;23.35;;;;;;;5.79;81.47;92993.94;5069859;28;20094;-70
2022/12/22 13:32:20;;;;;;;46.15;24.65;;;;;;;5.89;82.55;93005.38;5071054;28;20054;-70
2022/12/22 13:34:52;;;;;;;43.72;23.80;;;;;;;5.87;84.12;93002.22;5071641;28;20139;-70
2022/12/22 13:37:21;;;;;;;39.38;23.70;;;;;;;5.97;83.94;93017.19;5070992;28;20441;-70
2022/12/22 13:40:10;;;;;;;44.05;23.70;;;;;;;5.89;82.12;93010.47;5071215;28;20048;-70
2022/12/22 13:42:41;;;;;;;42.95;23.13;;;;;;;5.87;83.01;93007.34;5070960;28;20185;-70
2022/12/22 13:45:16;;;;;;;45.53;23.75;;;;;;;5.88;84.14;93008.13;5071069;28;20102;-71
2022/12/22 13:47:44;;;;;;;40.47;21.92;;;;;;;5.84;82.47;93002.59;5070653;28;20053;-70
2022/12/22 13:50:18;;;;;;;43.22;23.35;;;;;;;5.80;82.47;93009.06;5070606;28;20094;-70
2022/12/22 13:52:45;;;;;;;49.83;26.42;;;;;;;5.82;83.04;93012.19;5071108;28;20099;-72
2022/12/22 13:55:16;;;;;;;52.78;26.55;;;;;;;5.82;83.62;92998.66;5070804;28;20049;-70
2022/12/22 13:57:44;;;;;;;51.55;26.85;;;;;;;5.84;82.32;93009.47;5070817;28;20048;-70
2022/12/22 14:00:19;;;;;;;45.22;25.52;;;;;;;5.84;81.29;93000.03;5070546;28;20051;-70
2022/12/22 14:02:46;;;;;;;52.72;28.42;;;;;;;5.83;81.62;92998.47;5070819;28;20060;-71
2022/12/22 14:05:15;;;;;;;45.25;26.80;;;;;;;5.80;80.48;92992.97;5070645;28;20052;-71
2022/12/22 14:08:00;;;;;;;42.60;22.13;;;;;;;5.70;79.93;92996.59;5070265;28;20045;-70
2022/12/22 14:10:31;;;;;;;47.90;25.60;;;;;;;5.74;80.09;92997.06;5045250;28;20048;-70
2022/12/22 14:13:02;;;;;;;52.45;26.08;;;;;;;5.70;81.20;92996.59;5069958;28;20048;-70
2022/12/22 14:15:29;;;;;;;44.17;25.80;;;;;;;5.60;79.80;92991.84;5070714;28;20048;-70
2022/12/22 14:17:56;;;;;;;41.15;24.92;;;;;;;5.63;81.39;92995.78;5070286;28;20052;-70
2022/12/22 14:20:27;;;;;;;47.90;27.52;;;;;;;5.56;80.86;92985.53;5070455;28;20048;-70
2022/12/22 14:22:57;;;;;;;37.72;21.23;;;;;;;5.53;80.62;92974.91;5070025;28;20056;-70
2022/12/22 14:25:29;;;;;;;47.33;25.88;;;;;;;5.63;81.24;92990.69;5070264;28;20056;-70
2022/12/22 14:27:57;;;;;;;35.08;19.50;;;;;;;5.69;83.52;92994.28;5070202;28;20090;-70
2022/12/22 14:30:29;;;;;;;35.22;19.75;;;;;;;5.66;81.41;92990.31;5069729;28;20048;-69
2022/12/22 14:32:56;;;;;;;37.35;20.75;;;;;;;5.61;81.95;92995.97;5070024;28;20049;-70
2022/12/22 14:35:27;;;;;;;47.85;26.13;;;;;;;5.50;82.06;92995.69;5069896;28;20466;-70
2022/12/22 14:38:14;;;;;;;44.28;24.20;;;;;;;5.43;82.81;92987.97;5070324;28;20124;-70
2022/12/22 14:40:42;;;;;;;74.13;39.83;;;;;;;5.36;84.82;92993.00;5069439;28;20098;-70
2022/12/22 14:46:10;;;;;;;59.15;34.10;;;;;;;5.38;82.91;92993.63;5046417;28;20064;-69
2022/12/22 14:48:40;;;;;;;67.47;35.55;;;;;;;5.31;83.96;93001.19;5069382;28;20500;-69
2022/12/22 14:51:07;;;;;;;61.92;36.80;;;;;;;5.32;85.81;92995.13;5070100;28;20048;-69
2022/12/22 14:53:43;;;;;;;71.65;37.25;;;;;;;5.31;86.40;93006.28;5069929;28;20049;-69
2022/12/22 14:56:12;;;;;;;73.63;42.63;;;;;;;5.20;85.69;92994.81;5069882;28;20049;-69
2022/12/22 14:58:41;;;;;;;60.72;32.28;;;;;;;5.19;86.82;93002.66;5069283;28;20045;-70
2022/12/22 15:01:20;;;;;;;74.63;38.53;;;;;;;5.15;87.30;93009.88;5069536;28;20472;-70
2022/12/22 15:03:59;;;;;;;72.22;41.08;;;;;;;4.97;88.90;93005.19;5069577;28;20060;-69
2022/12/22 15:06:36;;;;;;;79.57;42.92;;;;;;;4.97;89.47;93017.13;5069247;28;20048;-69
2022/12/22 15:09:28;;;;;;;70.72;38.55;;;;;;;4.85;88.97;93016.81;5069494;28;20040;-69
2022/12/22 15:12:02;;;;;;;75.85;38.17;;;;;;;4.75;89.75;93014.53;5060901;28;20047;-69
2022/12/22 15:14:32;;;;;;;74.97;37.50;;;;;;;4.63;90.46;93011.66;5069114;28;20416;-69
2022/12/22 15:17:01;;;;;;;93.25;46.30;;;;;;;4.48;90.87;93014.19;5069082;28;20098;-69
2022/12/22 15:19:30;;;;;;;107.20;49.83;;;;;;;4.31;91.19;93005.97;5069211;28;20071;-70
2022/12/22 15:21:57;;;;;;;112.22;49.35;;;;;;;4.26;90.82;93012.38;5069404;28;20040;-69
2022/12/22 15:24:24;;;;;;;108.15;51.42;;;;;;;4.10;91.44;93003.19;5068950;28;20098;-70